Veterans Administration, New York
Current Conditions -  °F | °C
As of 12:54 AM on Thursday 23 Oct 2014 (Local Time) from KDSV Reporting Station
Overcast Overcast  
Wind Chill: 42°   Ceiling: 1800
Heat Index: 47°   Visibility: 10mi
Dew Point: 42°   Wind: 10mph
Humidity: 83%   Direction: 330°NNW
Pressure: 30.12"   Gusts: NA
Location:  42.346°N, 77.3478°W
Report Text: KDSV 230454Z AUTO 33009KT 10SM BKN018 OVC026 08/06 A3012 RMK AO2 SLP211 T00830056 400890072
Loading
Personal Weather Stations






























Interactive Weather Map
Tropical Storm Tracking
New forecast layout! Learn more

10-Day Weather Forecast

Advertisements
Track Severe Weather on mobile